PORTS® Data Listing: 8452660 Newport, RI

CO-OPS RAW PORTS DATA

************************      PRELIMINARY DATA      ************************** 

     THIS RAW DATA HAS NOT BEEN SUBJECT TO THE NATIONAL OCEAN SERVICE'S        
     QUALITY CONTROL OR QUALITY ASSURANCE PROCEDURES AND DOES NOT MEET         
     THE CRITERIA AND STANDARDS OF OFFICIAL NATIONAL OCEAN SERVICE             
     DATA.  IT IS RELEASED FOR LIMITED PUBLIC USE AS PRELIMINARY DATA TO       
     BE USED ONLY WITH APPROPRIATE CAUTION.                                    

************************      PRELIMINARY DATA      ************************** 


       CD   -   Calendar date
       T    -   Time
       TZ   -   Timezone
       PW   -   Predicted water level (feet above MLLW)
       OW   -   Observed water level (feet above MLLW)
       WS   -   Wind speed (knots)
       WD   -   Wind direction (degrees true)
       WG   -   Wind gust (knots)
       AT   -   Air temperature (degrees farenheit)
       WT   -   Water temperature (degrees farenheit)
       AP   -   Air pressure (millibars)
       SA   -   Salinty (PSU - Practical Salinity Units)
       SG   -   Specific gravity
       RH   -   Relative humidity
       AG   -   Air gap (feet)
       VI   -   Visibility (nautical miles)

       ** NOTE **
       A variable that has its data fields filled with "9"s, indicates that
       data was not collected for that sample period.
       **********


STATION NAME: Newport (8452660)
****************************************************************************************************
    CD       T    TZ    PW     OW    WS   WD   WG    AT    WT    AP    SA    SG     RH    AG   VI
****************************************************************************************************
2019/09/18 22:54 EDT    3.15   4.07    7   22   11  54.9  61.0 1027.0 28.3  1.021 -99.9 -99.99 -9.99
2019/09/18 23:00 EDT    3.17   4.10    6   24    8  54.9  61.0 1027.0 28.3  1.021 -99.9 -99.99 -9.99
2019/09/18 23:06 EDT    3.19   4.10    8   31   10  54.1  61.0 1026.9 28.3  1.021 -99.9 -99.99 -9.99
2019/09/18 23:12 EDT    3.20   4.11    6   31    9  54.1  61.0 1026.8 28.3  1.021 -99.9 -99.99 -9.99
2019/09/18 23:18 EDT    3.21   4.15    7   32    9  54.0  61.0 1026.9 28.3  1.021 -99.9 -99.99 -9.99
2019/09/18 23:24 EDT    3.21   4.10    7   25    9  54.3  61.0 1026.9 28.3  1.021 -99.9 -99.99 -9.99
2019/09/18 23:30 EDT    3.21   4.08    7   31   10  54.0  61.0 1026.9 28.3  1.021 -99.9 -99.99 -9.99
2019/09/18 23:36 EDT    3.20   4.09    7   33    9  53.8  61.0 1026.8 28.3  1.021 -99.9 -99.99 -9.99
2019/09/18 23:42 EDT    3.19   4.07    8   31   10  53.6  61.0 1026.9 28.3  1.021 -99.9 -99.99 -9.99
2019/09/18 23:48 EDT    3.18   4.06    6   33    9  53.4  61.0 1026.9 28.3  1.021 -99.9 -99.99 -9.99
2019/09/18 23:54 EDT    3.16   4.07    5   38    8  53.2  61.0 1026.8 28.3  1.022 -99.9 -99.99 -9.99
2019/09/19 00:00 EDT    3.13   4.04    5   39    7  53.1  61.0 1026.7 28.3  1.021 -99.9 -99.99 -9.99
2019/09/19 00:06 EDT    3.10   3.98    6   36    8  52.9  61.0 1026.7 28.3  1.021 -99.9 -99.99 -9.99
2019/09/19 00:12 EDT    3.07   3.99    6   38    8  52.9  61.0 1026.6 28.3  1.022 -99.9 -99.99 -9.99
2019/09/19 00:18 EDT    3.03   3.90    5   37    9  52.7  61.0 1026.7 28.3  1.022 -99.9 -99.99 -9.99
2019/09/19 00:24 EDT    2.98   3.84    6   31    8  52.9  60.8 1026.6 28.3  1.022 -99.9 -99.99 -9.99
2019/09/19 00:30 EDT    2.93   3.84    7   32    9  52.7  60.8 1026.6 28.3  1.022 -99.9 -99.99 -9.99
2019/09/19 00:36 EDT    2.88   3.77    6   31    8  52.9  60.8 1026.6 28.3  1.022 -99.9 -99.99 -9.99
2019/09/19 00:42 EDT    2.82   3.68    7   33    9  53.1  60.8 1026.5 28.3  1.022 -99.9 -99.99 -9.99
2019/09/19 00:48 EDT    2.76   3.65    6   29    8  53.2  60.8 1026.5 28.3  1.022 -99.9 -99.99 -9.99
2019/09/19 00:54 EDT    2.70   3.49    7   32    8  53.1  60.8 1026.5 28.3  1.022 -99.9 -99.99 -9.99
2019/09/19 01:00 EDT    2.63   3.37    8   35    9  52.9  60.8 1026.6 28.3  1.022 -99.9 -99.99 -9.99
2019/09/19 01:06 EDT    2.56   3.36    7   32    9  52.7  60.8 1026.5 28.4  1.022 -99.9 -99.99 -9.99
2019/09/19 01:12 EDT    2.49   3.29    7   32    9  52.9  60.8 1026.4 28.4  1.022 -99.9 -99.99 -9.99
2019/09/19 01:18 EDT    2.41   3.24    6   35    8  53.1  60.8 1026.4 28.3  1.022 -99.9 -99.99 -9.99
2019/09/19 01:24 EDT    2.34   3.22    7   31    9  52.7  60.8 1026.3 28.4  1.022 -99.9 -99.99 -9.99
2019/09/19 01:30 EDT    2.26   3.04    8   34    9  52.7  60.8 1026.3 28.4  1.022 -99.9 -99.99 -9.99
2019/09/19 01:36 EDT    2.17   2.93    7   32   10  52.7  60.8 1026.4 28.4  1.022 -99.9 -99.99 -9.99
2019/09/19 01:42 EDT    2.09   2.84    7   29    9  52.9  60.8 1026.5 28.3  1.022 -99.9 -99.99 -9.99
2019/09/19 01:48 EDT    2.01   2.77    6   31    9  53.2  60.8 1026.5 28.3  1.022 -99.9 -99.99 -9.99
2019/09/19 01:54 EDT    1.92   2.64    6   29   10  53.2  60.8 1026.4 28.3  1.022 -99.9 -99.99 -9.99
2019/09/19 02:00 EDT    1.84   2.56    7   36    9  52.7  60.8 1026.3 28.3  1.021 -99.9 -99.99 -9.99
2019/09/19 02:06 EDT    1.75   2.49    6   41    9  52.3  60.6 1026.5 28.3  1.022 -99.9 -99.99 -9.99
2019/09/19 02:12 EDT    1.66   2.31    5   37    8  52.2  60.6 1026.4 28.3  1.022 -99.9 -99.99 -9.99
2019/09/19 02:18 EDT    1.58   2.25    6   34    7  52.2  60.6 1026.3 28.3  1.022 -99.9 -99.99 -9.99
2019/09/19 02:24 EDT    1.49   2.19    6   33    8  52.2  60.6 1026.4 28.3  1.022 -99.9 -99.99 -9.99
2019/09/19 02:30 EDT    1.41   2.03    7   31    8  52.2  60.6 1026.3 28.3  1.022 -99.9 -99.99 -9.99
2019/09/19 02:36 EDT    1.32   2.00    7   31    9  52.0  60.6 1026.1 28.3  1.022 -99.9 -99.99 -9.99
2019/09/19 02:42 EDT    1.24   1.92    6   30    8  52.0  60.6 1026.2 28.3  1.022 -99.9 -99.99 -9.99
2019/09/19 02:48 EDT    1.16   1.81    6   27    8  52.3  60.6 1026.2 28.3  1.022 -99.9 -99.99 -9.99
2019/09/19 02:54 EDT    1.08   1.75    6   29    7  51.8  60.6 1026.2 28.3  1.022 -99.9 -99.99 -9.99
2019/09/19 03:00 EDT    1.00   1.69    6   27    7  52.2  60.6 1026.2 28.3  1.022 -99.9 -99.99 -9.99
2019/09/19 03:06 EDT    0.93   1.60    6   28    9  52.0  60.6 1026.2 28.3  1.022 -99.9 -99.99 -9.99
2019/09/19 03:12 EDT    0.86   1.50    6   36    8  52.0  60.6 1026.2 28.4  1.022 -99.9 -99.99 -9.99
2019/09/19 03:18 EDT    0.79   1.41    5   28    7  52.0  60.6 1026.1 28.4  1.022 -99.9 -99.99 -9.99
2019/09/19 03:24 EDT    0.73   1.34    5   31    6  52.0  60.6 1026.1 28.3  1.022 -99.9 -99.99 -9.99
2019/09/19 03:30 EDT    0.67   1.31    5   38    7  51.8  60.6 1026.2 28.3  1.022 -99.9 -99.99 -9.99
2019/09/19 03:36 EDT    0.61   1.23    6   29    7  52.0  60.6 1026.1 28.3  1.022 -99.9 -99.99 -9.99
2019/09/19 03:42 EDT    0.56   1.17    6   21    7  52.0  60.4 1026.1 28.4  1.022 -99.9 -99.99 -9.99
2019/09/19 03:48 EDT    0.51   1.13    5   18    9  51.8  60.4 1026.1 28.4  1.022 -99.9 -99.99 -9.99
2019/09/19 03:54 EDT    0.47   1.16    5   20    7  52.2  60.4 1026.2 28.3  1.022 -99.9 -99.99 -9.99
2019/09/19 04:00 EDT    0.43   1.08    6   20    8  52.0  60.4 1026.2 28.3  1.022 -99.9 -99.99 -9.99
2019/09/19 04:06 EDT    0.40   1.07    5   12    8  51.8  60.4 1026.0 28.3  1.022 -99.9 -99.99 -9.99
2019/09/19 04:12 EDT    0.37   1.01    4   15    8  51.8  60.4 1026.0 28.3  1.022 -99.9 -99.99 -9.99
2019/09/19 04:18 EDT    0.35   0.96    5    7    7  51.6  60.4 1026.0 28.4  1.022 -99.9 -99.99 -9.99
2019/09/19 04:24 EDT    0.33   1.07    5   20    8  51.8  60.3 1026.0 28.5  1.022 -99.9 -99.99 -9.99
2019/09/19 04:30 EDT    0.32   0.99    5   27    8  51.8  60.3 1026.1 28.5  1.022 -99.9 -99.99 -9.99
2019/09/19 04:36 EDT    0.32   1.02    4   14    7  52.0  60.3 1026.0 28.5  1.022 -99.9 -99.99 -9.99
2019/09/19 04:42 EDT    0.31   1.06    4   22    6  52.2  60.3 1026.1 28.5  1.022 -99.9 -99.99 -9.99
2019/09/19 04:48 EDT    0.32   1.06    5   27    7  51.8  60.3 1026.1 28.5  1.022 -99.9 -99.99 -9.99
2019/09/19 04:54 EDT    0.33   1.06    5   29    6  52.0  60.3 1026.0 28.5  1.022 -99.9 -99.99 -9.99
2019/09/19 05:00 EDT    0.34   1.12    5   32    7  51.8  60.3 1026.0 28.5  1.022 -99.9 -99.99 -9.99
2019/09/19 05:06 EDT    0.36   1.14    5   23    7  51.8  60.3 1026.1 28.5  1.022 -99.9 -99.99 -9.99
2019/09/19 05:12 EDT    0.38   1.08    4   19    6  52.0  60.3 1026.1 28.6  1.022 -99.9 -99.99 -9.99
2019/09/19 05:18 EDT    0.40   1.14    4   28    5  51.8  60.3 1026.2 28.5  1.022 -99.9 -99.99 -9.99
2019/09/19 05:24 EDT    0.43   1.14    4    9    6  52.0  60.3 1026.2 28.5  1.022 -99.9 -99.99 -9.99
2019/09/19 05:30 EDT    0.46   1.15    5   22    6  51.8  60.3 1026.3 28.5  1.022 -99.9 -99.99 -9.99
2019/09/19 05:36 EDT    0.50   1.21    5   11    6  52.0  60.3 1026.2 28.5  1.022 -99.9 -99.99 -9.99
2019/09/19 05:42 EDT    0.54   1.20    7   11    9  52.2  60.3 1026.3 28.6  1.022 -99.9 -99.99 -9.99
2019/09/19 05:48 EDT    0.58   1.24    9    8   11  52.0  60.3 1026.4 28.6  1.022 -99.9 -99.99 -9.99
2019/09/19 05:54 EDT    0.62   1.30    8    8   10  52.0  60.3 1026.4 28.6  1.022 -99.9 -99.99 -9.99
2019/09/19 06:00 EDT    0.66   1.32    6  360    9  52.0  60.3 1026.4 28.5  1.022 -99.9 -99.99 -9.99
2019/09/19 06:06 EDT    0.71   1.41    8    5   10  51.6  60.3 1026.6 28.5  1.022 -99.9 -99.99 -9.99
2019/09/19 06:12 EDT    0.76   1.45    7    1   10  51.4  60.1 1026.5 28.6  1.022 -99.9 -99.99 -9.99
2019/09/19 06:18 EDT    0.81   1.47   10    2   12  51.3  60.1 1026.5 28.6  1.022 -99.9 -99.99 -9.99
2019/09/19 06:24 EDT    0.86   1.51    9    6   12  51.3  60.1 1026.5 28.6  1.022 -99.9 -99.99 -9.99
2019/09/19 06:30 EDT    0.91   1.52    8    8   11  51.3  60.1 1026.6 28.6  1.022 -99.9 -99.99 -9.99
2019/09/19 06:36 EDT    0.96   1.57    6    3   12  51.6  59.9 1026.7 28.5  1.022 -99.9 -99.99 -9.99
2019/09/19 06:42 EDT    1.02   1.64    8    6   11  51.4  59.9 1026.8 28.5  1.022 -99.9 -99.99 -9.99
2019/09/19 06:48 EDT    1.07   1.64    9    2   11  51.8  59.9 1026.9 28.5  1.022 -99.9 -99.99 -9.99
2019/09/19 06:54 EDT    1.12   1.60    8    4   11  52.0  59.9 1026.9 28.5  1.022 -99.9 -99.99 -9.99
2019/09/19 07:00 EDT    1.18   1.73    7    1   11  52.0  59.9 1026.9 28.5  1.022 -99.9 -99.99 -9.99
2019/09/19 07:06 EDT    1.23   1.81    9   10   12  52.0  59.9 1026.9 28.5  1.022 -99.9 -99.99 -9.99
2019/09/19 07:12 EDT    1.29   1.81    8   11   12  52.2  59.9 1027.1 28.5  1.022 -99.9 -99.99 -9.99
2019/09/19 07:18 EDT    1.35   1.88   10    9   13  52.3  59.9 1027.1 28.5  1.022 -99.9 -99.99 -9.99
2019/09/19 07:24 EDT    1.40   1.93    8   11   14  52.5  59.9 1027.1 28.5  1.022 -99.9 -99.99 -9.99
2019/09/19 07:30 EDT    1.46   1.92   10    7   12  52.3  59.9 1027.1 28.5  1.022 -99.9 -99.99 -9.99
2019/09/19 07:36 EDT    1.52   1.99    7    5   11  52.7  59.9 1027.1 28.4  1.022 -99.9 -99.99 -9.99
2019/09/19 07:42 EDT    1.57   2.05    9    7   13  52.7  59.9 1027.1 28.4  1.022 -99.9 -99.99 -9.99
2019/09/19 07:48 EDT    1.63   2.04   10    8   12  52.9  59.9 1027.2 28.4  1.022 -99.9 -99.99 -9.99
2019/09/19 07:54 EDT    1.69   2.14   10    7   12  52.7  59.9 1027.2 28.4  1.022 -99.9 -99.99 -9.99
2019/09/19 08:00 EDT    1.75   2.32    8    6   11  53.2  59.9 1027.3 28.5  1.022 -99.9 -99.99 -9.99
2019/09/19 08:06 EDT    1.81   2.28    6    7   11  53.4  60.1 1027.5 28.5  1.022 -99.9 -99.99 -9.99
2019/09/19 08:12 EDT    1.87   2.41    8   10   11  53.2  60.1 1027.6 28.5  1.022 -99.9 -99.99 -9.99
2019/09/19 08:18 EDT    1.93   2.47    7   13   10  53.8  60.1 1027.6 28.5  1.022 -99.9 -99.99 -9.99
2019/09/19 08:24 EDT    1.99   2.54    7   10   11  54.0  60.1 1027.6 28.5  1.022 -99.9 -99.99 -9.99
2019/09/19 08:30 EDT    2.05   2.57    7    7   11  54.1  60.1 1027.6 28.5  1.022 -99.9 -99.99 -9.99
2019/09/19 08:36 EDT    2.12   2.58    7    8   12  54.1  60.1 1027.6 28.5  1.022 -99.9 -99.99 -9.99
2019/09/19 08:42 EDT    2.18   2.67   10   19   13  54.5  60.1 1027.6 28.3  1.022 -99.9 -99.99 -9.99
2019/09/19 08:48 EDT    2.24   2.73    8   20   13  54.5  60.1 1027.6 28.4  1.022 -99.9 -99.99 -9.99
2019/09/19 08:54 EDT    2.30   2.79    8   23   12  54.7  60.1 1027.6 28.4  1.022 -99.9 -99.99 -9.99
2019/09/19 09:00 EDT    2.37   2.85    7   25   14  54.9  60.1 1027.7 28.4  1.022 -99.9 -99.99 -9.99
2019/09/19 09:06 EDT    2.43   2.92    6   16   11  55.2  60.1 1027.7 28.4  1.022 -99.9 -99.99 -9.99
2019/09/19 09:12 EDT    2.49   3.04    8   18   11  55.0  60.3 1027.7 28.3  1.022 -99.9 -99.99 -9.99
2019/09/19 09:18 EDT    2.56   3.06    9   13   11  55.6  60.3 1027.6 28.4  1.022 -99.9 -99.99 -9.99
2019/09/19 09:24 EDT    2.62   3.16    9    5   12  55.4  60.3 1027.7 28.4  1.022 -99.9 -99.99 -9.99
2019/09/19 09:30 EDT    2.68   3.20    7    9   12  56.5  60.3 1027.6 28.4  1.022 -99.9 -99.99 -9.99
2019/09/19 09:36 EDT    2.74   3.25    7    8   12  56.5  60.3 1027.6 28.4  1.022 -99.9 -99.99 -9.99
2019/09/19 09:42 EDT    2.80   3.32    9   12   12  56.3  60.3 1027.7 28.4  1.022 -99.9 -99.99 -9.99
2019/09/19 09:48 EDT    2.86   3.41    9    5   13  56.5  60.3 1027.6 28.3  1.022 -99.9 -99.99 -9.99
2019/09/19 09:54 EDT    2.92   3.42    7   16   11  56.8  60.3 1027.6 28.3  1.022 -99.9 -99.99 -9.99
2019/09/19 10:00 EDT    2.98   3.46    8   11   10  57.2  60.3 1027.6 28.4  1.022 -99.9 -99.99 -9.99
2019/09/19 10:06 EDT    3.04   3.56    6   15   12  57.4  60.1 1027.6 28.4  1.022 -99.9 -99.99 -9.99
2019/09/19 10:12 EDT    3.09   3.70    9    5   11  57.2  60.4 1027.7 28.4  1.022 -99.9 -99.99 -9.99
2019/09/19 10:18 EDT    3.14   3.73    6    1   10  58.1  60.4 1027.6 28.4  1.022 -99.9 -99.99 -9.99
2019/09/19 10:24 EDT    3.19   3.78    9    4   11  58.1  60.4 1027.5 28.4  1.022 -99.9 -99.99 -9.99
2019/09/19 10:30 EDT    3.24   3.82    8    1   11  58.1  60.4 1027.5 28.4  1.022 -99.9 -99.99 -9.99
2019/09/19 10:36 EDT    3.28   3.86    9    1   14  58.3  60.3 1027.5 28.4  1.022 -99.9 -99.99 -9.99
2019/09/19 10:42 EDT    3.32   3.92    8    4   13  58.5  60.4 1027.6 28.3  1.022 -99.9 -99.99 -9.99
2019/09/19 10:48 EDT    3.36   4.01    7  358   13  58.8  60.4 1027.4 28.3  1.022 -99.9 -99.99 -9.99
2019/09/19 10:54 EDT    3.40   4.00    8   10   13  58.8  60.4 1027.4 28.4  1.022 -99.9 -99.99 -9.99
2019/09/19 11:00 EDT    3.43   4.05    6  360   11  59.0  60.4 1027.3 28.4  1.022 -99.9 -99.99 -9.99
2019/09/19 11:06 EDT    3.45   4.14    8    6   12  59.2  60.4 1027.3 28.3  1.022 -99.9 -99.99 -9.99
2019/09/19 11:12 EDT    3.48   4.15    7    4   12  59.7  60.4 1027.3 28.4  1.022 -99.9 -99.99 -9.99
2019/09/19 11:18 EDT    3.50   4.22    6   17   11  59.9  60.4 1027.3 28.4  1.022 -99.9 -99.99 -9.99
2019/09/19 11:24 EDT    3.51   4.25    6   14   11  60.4  60.4 1027.2 28.4  1.022 -99.9 -99.99 -9.99
2019/09/19 11:30 EDT    3.52   4.20    5   15   10  60.3  60.6 1027.1 28.3  1.022 -99.9 -99.99 -9.99
2019/09/19 11:36 EDT    3.53   4.22    7    4   10  60.8  60.6 1027.1 28.4  1.022 -99.9 -99.99 -9.99
2019/09/19 11:42 EDT    3.53   4.26    7  358   12  60.3  60.6 1027.1 28.3  1.022 -99.9 -99.99 -9.99
2019/09/19 11:48 EDT    3.53   4.28    7   10   12  60.8  60.6 1027.1 28.3  1.022 -99.9 -99.99 -9.99
2019/09/19 11:54 EDT    3.52   4.30    7   14   11  61.2  60.4 1027.1 28.3  1.022 -99.9 -99.99 -9.99
2019/09/19 12:00 EDT    3.51   4.28    8  346   10  61.0  60.4 1027.1 28.3  1.022 -99.9 -99.99 -9.99
2019/09/19 12:06 EDT    3.50   4.26    9  343   12  60.6  60.3 1027.1 28.2  1.022 -99.9 -99.99 -9.99
2019/09/19 12:12 EDT    3.48   4.24    7  354   11  60.8  60.3 1027.0 28.2  1.022 -99.9 -99.99 -9.99
2019/09/19 12:18 EDT    3.45   4.28    7  343    9  61.5  60.3 1027.0 28.2  1.021 -99.9 -99.99 -9.99
2019/09/19 12:24 EDT    3.42   4.22   10  347   11  61.3  60.3 1027.0 28.2  1.021 -99.9 -99.99 -9.99
2019/09/19 12:30 EDT    3.39   4.16    8    4   12  61.7  60.4 1027.0 28.2  1.021 -99.9 -99.99 -9.99
2019/09/19 12:36 EDT    3.35   4.19    9  352   11  61.5  60.4 1027.0 28.2  1.022 -99.9 -99.99 -9.99
2019/09/19 12:42 EDT    3.31   4.17    8  345   13  61.9  60.6 1026.9 28.2  1.021 -99.9 -99.99 -9.99
2019/09/19 12:48 EDT    3.26   4.09    8    0   11  62.2  60.6 1026.8 28.2  1.021 -99.9 -99.99 -9.99
2019/09/19 12:54 EDT    3.21   4.03    9  346   12  61.9  60.8 1026.8 28.2  1.021 -99.9 -99.99 -9.99
2019/09/19 13:00 EDT    3.16   3.95    8  340   11  61.9  60.6 1026.7 28.2  1.021 -99.9 -99.99 -9.99
2019/09/19 13:06 EDT    3.10   3.84    8  336   10  62.2  60.6 1026.7 28.2  1.021 -99.9 -99.99 -9.99
2019/09/19 13:12 EDT    3.04   3.77    7  337   10  62.4  60.6 1026.7 28.2  1.021 -99.9 -99.99 -9.99
2019/09/19 13:18 EDT    2.97   3.74    9  330   11  62.1  61.0 1026.5 28.2  1.021 -99.9 -99.99 -9.99
2019/09/19 13:24 EDT    2.91   3.73    8  341   11  62.4  60.8 1026.5 28.2  1.021 -99.9 -99.99 -9.99
2019/09/19 13:30 EDT    2.84   3.58    7  343   10  62.8  60.6 1026.4 28.2  1.021 -99.9 -99.99 -9.99
2019/09/19 13:36 EDT    2.76   3.49    7  343   10  62.8  60.6 1026.4 28.2  1.021 -99.9 -99.99 -9.99
2019/09/19 13:42 EDT    2.69   3.48    7  331    9  63.1  60.8 1026.4 28.1  1.021 -99.9 -99.99 -9.99
2019/09/19 13:48 EDT    2.61   3.42    7  347   10  63.1  60.6 1026.4 28.2  1.021 -99.9 -99.99 -9.99
2019/09/19 13:54 EDT    2.54   3.26    6    1   10  63.3  60.6 1026.3 28.2  1.021 -99.9 -99.99 -9.99
2019/09/19 14:00 EDT    2.46   3.21    7  335    9  63.3  60.6 1026.3 28.2  1.021 -99.9 -99.99 -9.99
2019/09/19 14:06 EDT    2.38   3.13    6  340   10  63.9  60.8 1026.1 28.1  1.021 -99.9 -99.99 -9.99
2019/09/19 14:12 EDT    2.30   3.03    7  344   10  63.7  60.8 1026.2 28.1  1.021 -99.9 -99.99 -9.99
2019/09/19 14:18 EDT    2.21   2.92    8  333   11  63.5  60.8 1026.1 28.1  1.021 -99.9 -99.99 -9.99
2019/09/19 14:24 EDT    2.13   2.90    5  336   10  64.4  60.8 1026.1 28.1  1.021 -99.9 -99.99 -9.99
2019/09/19 14:30 EDT    2.05   2.77    8  320    9  64.0  60.8 1026.0 28.1  1.021 -99.9 -99.99 -9.99
2019/09/19 14:36 EDT    1.97   2.61    7  322   10  64.4  60.8 1026.0 28.2  1.021 -99.9 -99.99 -9.99
2019/09/19 14:42 EDT    1.88   2.55    5  320    9  65.1  61.0 1026.1 28.1  1.021 -99.9 -99.99 -9.99
2019/09/19 14:48 EDT    1.80   2.44    6  332    8  64.6  61.0 1025.9 28.1  1.021 -99.9 -99.99 -9.99
2019/09/19 14:54 EDT    1.72   2.33    5  341    7  64.8  61.0 1025.9 28.2  1.021 -99.9 -99.99 -9.99
2019/09/19 15:00 EDT    1.64   2.26    4  317    8  65.1  61.0 1025.8 28.1  1.021 -99.9 -99.99 -9.99
2019/09/19 15:06 EDT    1.56   2.11    7  309    8  64.9  61.0 1025.7 28.1  1.021 -99.9 -99.99 -9.99
2019/09/19 15:12 EDT    1.49   2.01    6  333    9  65.5  61.0 1025.7 28.0  1.021 -99.9 -99.99 -9.99
2019/09/19 15:18 EDT    1.41   1.99    5  315    9  65.3  61.0 1025.7 28.1  1.021 -99.9 -99.99 -9.99
2019/09/19 15:24 EDT    1.34   1.88    6  340   10  65.3  61.0 1025.6 28.1  1.021 -99.9 -99.99 -9.99
2019/09/19 15:30 EDT    1.27   1.78    5  321    8  65.7  61.0 1025.5 28.1  1.021 -99.9 -99.99 -9.99
2019/09/19 15:36 EDT    1.20   1.68    5  341    8  65.7  61.2 1025.5 28.1  1.021 -99.9 -99.99 -9.99
2019/09/19 15:42 EDT    1.13   1.63    7  343    9  65.7  61.2 1025.4 28.1  1.021 -99.9 -99.99 -9.99
2019/09/19 15:48 EDT    1.07   1.57    6  345    9  65.8  61.2 1025.3 28.1  1.021 -99.9 -99.99 -9.99
2019/09/19 15:54 EDT    1.01   1.55    5  315    7  66.2  61.2 1025.3 28.1  1.021 -99.9 -99.99 -9.99
2019/09/19 16:00 EDT    0.96   1.44    4  314    8  66.2  61.2 1025.3 28.0  1.021 -99.9 -99.99 -9.99
2019/09/19 16:06 EDT    0.91   1.38    6  323    8  65.8  61.2 1025.3 28.1  1.021 -99.9 -99.99 -9.99
2019/09/19 16:12 EDT    0.86   1.35    5  305    7  66.2  61.2 1025.3 28.1  1.021 -99.9 -99.99 -9.99
2019/09/19 16:18 EDT    0.81   1.30    4  313    7  66.0  61.2 1025.2 28.1  1.021 -99.9 -99.99 -9.99
2019/09/19 16:24 EDT    0.77   1.27    5  305    7  66.0  61.2 1025.3 28.1  1.021 -99.9 -99.99 -9.99
2019/09/19 16:30 EDT    0.74   1.28    3  325    6  66.6  61.2 1025.3 28.1  1.021 -99.9 -99.99 -9.99
2019/09/19 16:36 EDT    0.71   1.24    4  340    6  66.4  61.2 1025.2 28.1  1.021 -99.9 -99.99 -9.99
2019/09/19 16:42 EDT    0.68 -99.99 -999 -999 -999 -99.9 -99.9 -999.9 -9.9 -9.999 -99.9 -99.99 -9.99
2019/09/19 16:48 EDT    0.66 -99.99 -999 -999 -999 -99.9 -99.9 -999.9 -9.9 -9.999 -99.9 -99.99 -9.99
2019/09/19 16:54 EDT    0.64 -99.99 -999 -999 -999 -99.9 -99.9 -999.9 -9.9 -9.999 -99.9 -99.99 -9.99
2019/09/19 17:00 EDT    0.63 -99.99 -999 -999 -999 -99.9 -99.9 -999.9 -9.9 -9.999 -99.9 -99.99 -9.99
2019/09/19 17:06 EDT    0.62 -99.99 -999 -999 -999 -99.9 -99.9 -999.9 -9.9 -9.999 -99.9 -99.99 -9.99
2019/09/19 17:12 EDT    0.61 -99.99 -999 -999 -999 -99.9 -99.9 -999.9 -9.9 -9.999 -99.9 -99.99 -9.99
2019/09/19 17:18 EDT    0.61 -99.99 -999 -999 -999 -99.9 -99.9 -999.9 -9.9 -9.999 -99.9 -99.99 -9.99
2019/09/19 17:24 EDT    0.61 -99.99 -999 -999 -999 -99.9 -99.9 -999.9 -9.9 -9.999 -99.9 -99.99 -9.99
2019/09/19 17:30 EDT    0.61 -99.99 -999 -999 -999 -99.9 -99.9 -999.9 -9.9 -9.999 -99.9 -99.99 -9.99
2019/09/19 17:36 EDT    0.62 -99.99 -999 -999 -999 -99.9 -99.9 -999.9 -9.9 -9.999 -99.9 -99.99 -9.99
2019/09/19 17:42 EDT    0.63 -99.99 -999 -999 -999 -99.9 -99.9 -999.9 -9.9 -9.999 -99.9 -99.99 -9.99
2019/09/19 17:48 EDT    0.64 -99.99 -999 -999 -999 -99.9 -99.9 -999.9 -9.9 -9.999 -99.9 -99.99 -9.99
2019/09/19 17:54 EDT    0.66 -99.99 -999 -999 -999 -99.9 -99.9 -999.9 -9.9 -9.999 -99.9 -99.99 -9.99
2019/09/19 18:00 EDT    0.68 -99.99 -999 -999 -999 -99.9 -99.9 -999.9 -9.9 -9.999 -99.9 -99.99 -9.99
2019/09/19 18:06 EDT    0.70 -99.99 -999 -999 -999 -99.9 -99.9 -999.9 -9.9 -9.999 -99.9 -99.99 -9.99
2019/09/19 18:12 EDT    0.72 -99.99 -999 -999 -999 -99.9 -99.9 -999.9 -9.9 -9.999 -99.9 -99.99 -9.99
2019/09/19 18:18 EDT    0.74 -99.99 -999 -999 -999 -99.9 -99.9 -999.9 -9.9 -9.999 -99.9 -99.99 -9.99
2019/09/19 18:24 EDT    0.77 -99.99 -999 -999 -999 -99.9 -99.9 -999.9 -9.9 -9.999 -99.9 -99.99 -9.99
2019/09/19 18:30 EDT    0.79 -99.99 -999 -999 -999 -99.9 -99.9 -999.9 -9.9 -9.999 -99.9 -99.99 -9.99
2019/09/19 18:36 EDT    0.82 -99.99 -999 -999 -999 -99.9 -99.9 -999.9 -9.9 -9.999 -99.9 -99.99 -9.99
2019/09/19 18:42 EDT    0.85 -99.99 -999 -999 -999 -99.9 -99.9 -999.9 -9.9 -9.999 -99.9 -99.99 -9.99
2019/09/19 18:48 EDT    0.87 -99.99 -999 -999 -999 -99.9 -99.9 -999.9 -9.9 -9.999 -99.9 -99.99 -9.99
2019/09/19 18:54 EDT    0.90 -99.99 -999 -999 -999 -99.9 -99.9 -999.9 -9.9 -9.999 -99.9 -99.99 -9.99
2019/09/19 19:00 EDT    0.93 -99.99 -999 -999 -999 -99.9 -99.9 -999.9 -9.9 -9.999 -99.9 -99.99 -9.99
2019/09/19 19:06 EDT    0.96 -99.99 -999 -999 -999 -99.9 -99.9 -999.9 -9.9 -9.999 -99.9 -99.99 -9.99
2019/09/19 19:12 EDT    0.99 -99.99 -999 -999 -999 -99.9 -99.9 -999.9 -9.9 -9.999 -99.9 -99.99 -9.99
2019/09/19 19:18 EDT    1.02 -99.99 -999 -999 -999 -99.9 -99.9 -999.9 -9.9 -9.999 -99.9 -99.99 -9.99
2019/09/19 19:24 EDT    1.05 -99.99 -999 -999 -999 -99.9 -99.9 -999.9 -9.9 -9.999 -99.9 -99.99 -9.99
2019/09/19 19:30 EDT    1.08 -99.99 -999 -999 -999 -99.9 -99.9 -999.9 -9.9 -9.999 -99.9 -99.99 -9.99
2019/09/19 19:36 EDT    1.12 -99.99 -999 -999 -999 -99.9 -99.9 -999.9 -9.9 -9.999 -99.9 -99.99 -9.99
2019/09/19 19:42 EDT    1.15 -99.99 -999 -999 -999 -99.9 -99.9 -999.9 -9.9 -9.999 -99.9 -99.99 -9.99
2019/09/19 19:48 EDT    1.18 -99.99 -999 -999 -999 -99.9 -99.9 -999.9 -9.9 -9.999 -99.9 -99.99 -9.99
2019/09/19 19:54 EDT    1.22 -99.99 -999 -999 -999 -99.9 -99.9 -999.9 -9.9 -9.999 -99.9 -99.99 -9.99
2019/09/19 20:00 EDT    1.25 -99.99 -999 -999 -999 -99.9 -99.9 -999.9 -9.9 -9.999 -99.9 -99.99 -9.99
2019/09/19 20:06 EDT    1.29 -99.99 -999 -999 -999 -99.9 -99.9 -999.9 -9.9 -9.999 -99.9 -99.99 -9.99
2019/09/19 20:12 EDT    1.33 -99.99 -999 -999 -999 -99.9 -99.9 -999.9 -9.9 -9.999 -99.9 -99.99 -9.99
2019/09/19 20:18 EDT    1.37 -99.99 -999 -999 -999 -99.9 -99.9 -999.9 -9.9 -9.999 -99.9 -99.99 -9.99
2019/09/19 20:24 EDT    1.41 -99.99 -999 -999 -999 -99.9 -99.9 -999.9 -9.9 -9.999 -99.9 -99.99 -9.99
2019/09/19 20:30 EDT    1.45 -99.99 -999 -999 -999 -99.9 -99.9 -999.9 -9.9 -9.999 -99.9 -99.99 -9.99
2019/09/19 20:36 EDT    1.49 -99.99 -999 -999 -999 -99.9 -99.9 -999.9 -9.9 -9.999 -99.9 -99.99 -9.99
2019/09/19 20:42 EDT    1.54 -99.99 -999 -999 -999 -99.9 -99.9 -999.9 -9.9 -9.999 -99.9 -99.99 -9.99
2019/09/19 20:48 EDT    1.58 -99.99 -999 -999 -999 -99.9 -99.9 -999.9 -9.9 -9.999 -99.9 -99.99 -9.99
2019/09/19 20:54 EDT    1.63 -99.99 -999 -999 -999 -99.9 -99.9 -999.9 -9.9 -9.999 -99.9 -99.99 -9.99
2019/09/19 21:00 EDT    1.68 -99.99 -999 -999 -999 -99.9 -99.9 -999.9 -9.9 -9.999 -99.9 -99.99 -9.99
2019/09/19 21:06 EDT    1.73 -99.99 -999 -999 -999 -99.9 -99.9 -999.9 -9.9 -9.999 -99.9 -99.99 -9.99
2019/09/19 21:12 EDT    1.78 -99.99 -999 -999 -999 -99.9 -99.9 -999.9 -9.9 -9.999 -99.9 -99.99 -9.99
2019/09/19 21:18 EDT    1.83 -99.99 -999 -999 -999 -99.9 -99.9 -999.9 -9.9 -9.999 -99.9 -99.99 -9.99
2019/09/19 21:24 EDT    1.89 -99.99 -999 -999 -999 -99.9 -99.9 -999.9 -9.9 -9.999 -99.9 -99.99 -9.99
2019/09/19 21:30 EDT    1.94 -99.99 -999 -999 -999 -99.9 -99.9 -999.9 -9.9 -9.999 -99.9 -99.99 -9.99
2019/09/19 21:36 EDT    2.00 -99.99 -999 -999 -999 -99.9 -99.9 -999.9 -9.9 -9.999 -99.9 -99.99 -9.99
2019/09/19 21:42 EDT    2.05 -99.99 -999 -999 -999 -99.9 -99.9 -999.9 -9.9 -9.999 -99.9 -99.99 -9.99
2019/09/19 21:48 EDT    2.11 -99.99 -999 -999 -999 -99.9 -99.9 -999.9 -9.9 -9.999 -99.9 -99.99 -9.99
2019/09/19 21:54 EDT    2.17 -99.99 -999 -999 -999 -99.9 -99.9 -999.9 -9.9 -9.999 -99.9 -99.99 -9.99
2019/09/19 22:00 EDT    2.23 -99.99 -999 -999 -999 -99.9 -99.9 -999.9 -9.9 -9.999 -99.9 -99.99 -9.99
2019/09/19 22:06 EDT    2.29 -99.99 -999 -999 -999 -99.9 -99.9 -999.9 -9.9 -9.999 -99.9 -99.99 -9.99
2019/09/19 22:12 EDT    2.34 -99.99 -999 -999 -999 -99.9 -99.9 -999.9 -9.9 -9.999 -99.9 -99.99 -9.99
2019/09/19 22:18 EDT    2.40 -99.99 -999 -999 -999 -99.9 -99.9 -999.9 -9.9 -9.999 -99.9 -99.99 -9.99
2019/09/19 22:24 EDT    2.46 -99.99 -999 -999 -999 -99.9 -99.9 -999.9 -9.9 -9.999 -99.9 -99.99 -9.99
2019/09/19 22:30 EDT    2.51 -99.99 -999 -999 -999 -99.9 -99.9 -999.9 -9.9 -9.999 -99.9 -99.99 -9.99
2019/09/19 22:36 EDT    2.57 -99.99 -999 -999 -999 -99.9 -99.9 -999.9 -9.9 -9.999 -99.9 -99.99 -9.99
2019/09/19 22:42 EDT    2.62 -99.99 -999 -999 -999 -99.9 -99.9 -999.9 -9.9 -9.999 -99.9 -99.99 -9.99
2019/09/19 22:48 EDT    2.67 -99.99 -999 -999 -999 -99.9 -99.9 -999.9 -9.9 -9.999 -99.9 -99.99 -9.99
2019/09/19 22:54 EDT    2.72 -99.99 -999 -999 -999 -99.9 -99.9 -999.9 -9.9 -9.999 -99.9 -99.99 -9.99